createdAt,value
2018-05-09T00:01:43.549Z,4.70
2018-05-09T00:04:11.063Z,4.37
2018-05-09T00:06:38.648Z,5.20
2018-05-09T00:09:06.247Z,4.70
2018-05-09T00:11:33.781Z,5.00
2018-05-09T00:14:01.293Z,4.32
2018-05-09T00:16:29.586Z,4.40
2018-05-09T00:18:57.880Z,4.93
2018-05-09T00:21:25.408Z,5.00
2018-05-09T00:23:52.943Z,5.70
2018-05-09T00:26:20.465Z,5.85
2018-05-09T00:28:48.022Z,5.60
2018-05-09T00:31:15.520Z,6.78
2018-05-09T00:33:43.045Z,6.80
2018-05-09T00:36:10.596Z,6.43
2018-05-09T00:38:38.163Z,7.05
2018-05-09T00:41:05.688Z,8.43
2018-05-09T00:43:33.963Z,8.23
2018-05-09T00:46:01.493Z,8.70
2018-05-09T00:48:29.015Z,7.93
2018-05-09T00:50:56.541Z,8.20
2018-05-09T00:53:24.847Z,8.00
2018-05-09T00:55:52.355Z,8.50
2018-05-09T00:58:19.871Z,7.40
2018-05-09T01:00:47.376Z,8.13
2018-05-09T01:03:14.917Z,8.30
2018-05-09T01:05:42.631Z,7.80
2018-05-09T01:08:11.199Z,7.68
2018-05-09T01:10:38.863Z,8.45
2018-05-09T01:13:07.508Z,8.10
2018-05-09T01:15:35.445Z,7.80
2018-05-09T01:18:03.703Z,7.62
2018-05-09T01:20:31.486Z,7.22
2018-05-09T01:22:59.122Z,7.18
2018-05-09T01:25:27.522Z,7.10
2018-05-09T01:27:55.113Z,7.35
2018-05-09T01:30:22.642Z,6.85
2018-05-09T01:32:50.208Z,6.60
2018-05-09T01:35:17.811Z,6.80
2018-05-09T01:37:45.347Z,6.90
2018-05-09T01:40:12.867Z,7.32
2018-05-09T01:42:40.388Z,6.90
2018-05-09T01:45:12.165Z,6.70
2018-05-09T01:47:40.041Z,6.82
2018-05-09T01:50:08.625Z,6.60
2018-05-09T01:52:36.509Z,6.17
2018-05-09T01:55:04.028Z,6.78
2018-05-09T01:57:31.782Z,7.32
2018-05-09T02:00:00.092Z,7.07
2018-05-09T02:02:28.088Z,7.10
2018-05-09T02:04:56.364Z,6.10
2018-05-09T02:07:24.813Z,6.43
2018-05-09T02:09:53.298Z,6.00
2018-05-09T02:12:21.555Z,7.47
2018-05-09T02:14:49.444Z,5.60
2018-05-09T02:17:20.347Z,5.32
2018-05-09T02:19:48.360Z,6.87
2018-05-09T02:22:16.780Z,6.70
2018-05-09T02:24:44.910Z,5.60
2018-05-09T02:27:13.231Z,5.90
2018-05-09T02:29:42.300Z,6.07
2018-05-09T02:32:14.903Z,6.22
2018-05-09T02:34:44.803Z,6.50
2018-05-09T02:37:13.374Z,6.07
2018-05-09T02:39:41.561Z,6.28
2018-05-09T02:42:10.343Z,6.70
2018-05-09T02:44:38.855Z,6.37
2018-05-09T02:47:07.444Z,5.80
2018-05-09T02:49:35.382Z,6.32
2018-05-09T02:52:05.836Z,6.20
2018-05-09T02:54:35.740Z,6.65
2018-05-09T02:57:04.109Z,6.60
2018-05-09T02:59:32.978Z,7.63
2018-05-09T03:02:00.581Z,6.93
2018-05-09T03:04:28.121Z,6.70
2018-05-09T03:06:56.835Z,6.97
2018-05-09T03:09:24.353Z,6.93
2018-05-09T03:11:51.845Z,6.47
2018-05-09T03:14:19.378Z,7.03
2018-05-09T03:16:47.658Z,5.87
2018-05-09T03:19:15.973Z,7.18
2018-05-09T03:21:43.509Z,6.93
2018-05-09T03:24:11.013Z,7.03
2018-05-09T03:26:38.539Z,6.93
2018-05-09T03:29:06.067Z,6.37
2018-05-09T03:31:33.570Z,6.72
2018-05-09T03:34:01.096Z,6.80
2018-05-09T03:36:29.401Z,6.53
2018-05-09T03:38:56.919Z,6.82
2018-05-09T03:41:24.464Z,6.93
2018-05-09T03:43:57.635Z,8.02
2018-05-09T03:46:26.973Z,6.90
2018-05-09T03:48:55.498Z,6.70
2018-05-09T03:51:23.825Z,8.30
2018-05-09T03:53:52.238Z,8.30
2018-05-09T03:56:20.694Z,7.35
2018-05-09T03:58:51.407Z,7.10
2018-05-09T04:01:19.624Z,7.47
2018-05-09T04:04:00.577Z,7.35
2018-05-09T04:06:40.327Z,7.95
2018-05-09T04:09:20.051Z,6.62
2018-05-09T04:11:47.842Z,7.78
2018-05-09T04:14:19.520Z,8.35
2018-05-09T04:16:47.579Z,7.32
2018-05-09T04:19:16.127Z,7.65
2018-05-09T04:21:43.847Z,8.30
2018-05-09T04:24:11.397Z,7.80
2018-05-09T04:26:39.111Z,7.60
2018-05-09T04:29:07.011Z,7.80
2018-05-09T04:31:35.567Z,7.80
2018-05-09T04:34:03.106Z,7.77
2018-05-09T04:36:30.635Z,7.55
2018-05-09T04:38:58.161Z,7.90
2018-05-09T04:41:25.689Z,7.15
2018-05-09T04:43:53.210Z,7.37
2018-05-09T04:46:21.489Z,7.57
2018-05-09T04:48:49.787Z,9.35
2018-05-09T04:51:17.424Z,7.80
2018-05-09T04:53:45.713Z,8.60
2018-05-09T04:56:13.259Z,8.90
2018-05-09T04:58:40.809Z,8.45
2018-05-09T05:01:09.098Z,7.90
2018-05-09T05:03:37.399Z,8.40
2018-05-09T05:06:04.945Z,7.93
2018-05-09T05:08:32.486Z,7.55
2018-05-09T05:11:00.801Z,8.27
2018-05-09T05:13:28.387Z,7.90
2018-05-09T05:15:55.958Z,7.55
2018-05-09T05:18:23.511Z,7.65
2018-05-09T05:20:51.017Z,8.90
2018-05-09T05:23:19.295Z,8.43
2018-05-09T05:25:46.841Z,8.02
2018-05-09T05:28:14.394Z,7.80
2018-05-09T05:30:42.778Z,7.97
2018-05-09T05:33:10.288Z,8.75
2018-05-09T05:35:37.845Z,7.97
2018-05-09T05:38:05.366Z,8.15
2018-05-09T05:40:33.711Z,8.88
2018-05-09T05:43:01.314Z,8.80
2018-05-09T05:45:28.988Z,8.30
2018-05-09T05:47:56.469Z,9.02
2018-05-09T05:50:24.054Z,8.98
2018-05-09T05:52:51.580Z,10.07
2018-05-09T05:55:19.365Z,9.00
2018-05-09T05:57:46.901Z,9.50
2018-05-09T06:00:14.489Z,9.60
2018-05-09T06:02:42.029Z,14.85
2018-05-09T06:05:09.570Z,9.75
2018-05-09T06:07:37.116Z,9.63
2018-05-09T06:10:04.757Z,9.25
2018-05-09T06:12:32.327Z,9.38
2018-05-09T06:14:59.925Z,8.23
2018-05-09T06:17:27.444Z,9.13
2018-05-09T06:19:55.838Z,8.90
2018-05-09T06:22:23.424Z,8.77
2018-05-09T06:24:50.945Z,10.07
2018-05-09T06:27:18.508Z,8.77
2018-05-09T06:29:46.810Z,7.82
2018-05-09T06:32:14.344Z,8.70
2018-05-09T06:34:41.858Z,9.90
2018-05-09T06:37:09.400Z,9.13
2018-05-09T06:39:36.927Z,10.75
2018-05-09T06:42:04.478Z,9.50
2018-05-09T06:44:32.005Z,9.77
2018-05-09T06:46:59.522Z,8.27
2018-05-09T06:49:27.038Z,9.30
2018-05-09T06:51:55.322Z,8.43
2018-05-09T06:54:22.845Z,8.90
2018-05-09T06:56:50.408Z,9.05
2018-05-09T06:59:17.981Z,9.50
2018-05-09T07:01:45.505Z,8.52
2018-05-09T07:04:13.010Z,8.93
2018-05-09T07:06:40.911Z,8.80
2018-05-09T07:09:08.993Z,8.20
2018-05-09T07:11:37.295Z,8.70
2018-05-09T07:14:04.830Z,8.00
2018-05-09T07:16:32.345Z,8.77
2018-05-09T07:19:01.738Z,8.00
2018-05-09T07:21:29.274Z,8.77
2018-05-09T07:23:56.838Z,8.15
2018-05-09T07:26:24.606Z,8.65
2018-05-09T07:28:52.139Z,7.83
2018-05-09T07:31:20.420Z,8.07
2018-05-09T07:33:48.227Z,9.50
2018-05-09T07:36:15.793Z,9.40
2018-05-09T07:38:43.302Z,9.10
2018-05-09T07:41:10.990Z,8.38
2018-05-09T07:43:38.645Z,9.32
2018-05-09T07:46:06.176Z,8.90
2018-05-09T07:48:34.486Z,9.00
2018-05-09T07:51:02.038Z,7.70
2018-05-09T07:53:29.620Z,8.63
2018-05-09T07:55:57.143Z,8.90
2018-05-09T07:58:24.700Z,8.43
2018-05-09T08:00:52.249Z,7.90
2018-05-09T08:03:19.770Z,7.85
2018-05-09T08:05:47.308Z,9.10
2018-05-09T08:08:14.810Z,8.20
2018-05-09T08:10:42.407Z,8.02
2018-05-09T08:13:10.775Z,8.48
2018-05-09T08:15:38.296Z,8.55
2018-05-09T08:18:05.824Z,7.35
2018-05-09T08:20:33.417Z,8.10
2018-05-09T08:23:00.963Z,7.37
2018-05-09T08:25:28.534Z,8.05
2018-05-09T08:27:56.080Z,8.98
2018-05-09T08:30:23.716Z,8.02
2018-05-09T08:32:51.211Z,9.48
2018-05-09T08:35:18.732Z,7.97
2018-05-09T08:37:46.238Z,7.60
2018-05-09T08:40:13.772Z,7.80
2018-05-09T08:42:41.326Z,9.38
2018-05-09T08:45:08.850Z,8.18
2018-05-09T08:47:37.143Z,8.00
2018-05-09T08:50:05.467Z,6.97
2018-05-09T08:52:33.028Z,7.05
2018-05-09T08:55:00.530Z,7.62
2018-05-09T08:57:28.090Z,7.53
2018-05-09T08:59:55.794Z,7.50
2018-05-09T09:02:23.443Z,8.00
2018-05-09T09:04:51.001Z,6.87
2018-05-09T09:07:18.561Z,6.50
2018-05-09T09:09:46.082Z,6.77
2018-05-09T09:12:13.656Z,7.15
2018-05-09T09:14:41.195Z,6.57
2018-05-09T09:17:08.715Z,5.40
2018-05-09T09:19:36.232Z,6.75
2018-05-09T09:22:03.786Z,5.97
2018-05-09T09:24:32.089Z,6.62
2018-05-09T09:26:59.584Z,6.85
2018-05-09T09:29:27.115Z,5.95
2018-05-09T09:31:54.669Z,6.22
2018-05-09T09:34:22.204Z,5.70
2018-05-09T09:36:50.523Z,5.80
2018-05-09T09:39:18.167Z,5.12
2018-05-09T09:41:45.691Z,4.97
2018-05-09T09:44:13.240Z,4.47
2018-05-09T09:46:41.169Z,5.03
2018-05-09T09:49:08.696Z,7.32
2018-05-09T09:51:36.992Z,12.30
2018-05-09T09:54:04.543Z,6.82
2018-05-09T09:56:32.073Z,6.13
2018-05-09T09:58:59.658Z,5.32
2018-05-09T10:01:27.189Z,5.40
2018-05-09T10:03:54.787Z,5.00
2018-05-09T10:06:22.473Z,4.78
2018-05-09T10:08:50.013Z,4.70
2018-05-09T10:11:18.332Z,4.30
2018-05-09T10:13:45.853Z,5.10
2018-05-09T10:16:13.378Z,4.50
2018-05-09T10:18:41.714Z,4.35
2018-05-09T10:21:09.232Z,4.27
2018-05-09T10:23:36.755Z,4.40
2018-05-09T10:26:04.294Z,4.70
2018-05-09T10:28:31.845Z,4.57
2018-05-09T10:30:59.367Z,4.95
2018-05-09T10:33:27.718Z,3.70
2018-05-09T10:35:55.238Z,3.85
2018-05-09T10:38:22.770Z,3.53
2018-05-09T10:40:51.042Z,3.90
2018-05-09T10:43:19.346Z,4.30
2018-05-09T10:45:46.919Z,4.30
2018-05-09T10:48:14.507Z,4.40
2018-05-09T10:50:42.142Z,3.60
2018-05-09T10:53:09.615Z,3.97
2018-05-09T10:55:37.122Z,3.70
2018-05-09T10:58:04.659Z,3.20
2018-05-09T11:00:32.205Z,3.40
2018-05-09T11:02:59.782Z,3.47
2018-05-09T11:05:27.408Z,3.10
2018-05-09T11:07:54.944Z,3.05
2018-05-09T11:10:22.495Z,2.78
2018-05-09T11:12:50.116Z,3.33
2018-05-09T11:15:17.625Z,3.47
2018-05-09T11:17:45.174Z,2.95
2018-05-09T11:20:13.472Z,3.47
2018-05-09T11:22:41.028Z,3.60
2018-05-09T11:25:08.569Z,3.67
2018-05-09T11:27:36.840Z,3.10
2018-05-09T11:30:05.140Z,3.60
2018-05-09T11:32:32.683Z,3.70
2018-05-09T11:35:00.218Z,2.80
2018-05-09T11:37:27.775Z,3.53
2018-05-09T11:39:55.424Z,3.90
2018-05-09T11:42:22.995Z,3.60
2018-05-09T11:44:50.640Z,4.00
2018-05-09T11:47:18.210Z,4.00
2018-05-09T11:49:45.765Z,4.03
2018-05-09T11:52:13.340Z,4.72
2018-05-09T11:54:40.875Z,6.07
2018-05-09T11:57:08.407Z,5.10
2018-05-09T11:59:36.001Z,4.40
2018-05-09T12:02:03.615Z,4.45
2018-05-09T12:04:31.149Z,5.10
2018-05-09T12:06:58.680Z,4.22
2018-05-09T12:09:26.230Z,6.18
2018-05-09T12:11:53.773Z,5.50
2018-05-09T12:14:21.383Z,5.28
2018-05-09T12:16:48.955Z,5.18
2018-05-09T12:19:16.480Z,5.10
2018-05-09T12:21:44.064Z,5.50
2018-05-09T12:24:11.617Z,5.80
2018-05-09T12:26:39.180Z,5.03
2018-05-09T12:29:06.778Z,5.03
2018-05-09T12:31:35.097Z,4.82
2018-05-09T12:34:02.629Z,4.93
2018-05-09T12:36:30.297Z,4.80
2018-05-09T12:38:57.775Z,4.50
2018-05-09T12:41:25.332Z,6.30
2018-05-09T12:43:52.891Z,8.65
2018-05-09T12:46:20.405Z,5.25
2018-05-09T12:48:48.153Z,5.03
2018-05-09T12:51:15.569Z,5.10
2018-05-09T12:53:43.069Z,5.33
2018-05-09T12:56:10.619Z,5.15
2018-05-09T12:58:38.125Z,6.07
2018-05-09T13:01:06.465Z,7.70
2018-05-09T13:03:34.003Z,4.90
2018-05-09T13:06:01.574Z,4.70
2018-05-09T13:08:29.138Z,5.37
2018-05-09T13:10:56.669Z,5.60
2018-05-09T13:13:24.227Z,5.20
2018-05-09T13:15:51.787Z,4.70
2018-05-09T13:18:19.310Z,4.93
2018-05-09T13:20:46.837Z,4.30
2018-05-09T13:23:15.136Z,4.50
2018-05-09T13:25:43.517Z,4.50
2018-05-09T13:28:11.022Z,4.30
2018-05-09T13:30:38.577Z,4.43
2018-05-09T13:33:06.096Z,4.07
2018-05-09T13:35:33.657Z,4.23
2018-05-09T13:38:01.934Z,4.40
2018-05-09T13:40:30.243Z,4.60
2018-05-09T13:42:57.784Z,4.47
2018-05-09T13:45:25.348Z,4.47
2018-05-09T13:47:53.654Z,4.30
2018-05-09T13:50:21.201Z,4.60
2018-05-09T13:52:48.726Z,4.67
2018-05-09T13:55:16.264Z,4.65
2018-05-09T13:57:43.787Z,4.80
2018-05-09T14:00:11.301Z,4.45
2018-05-09T14:02:38.838Z,4.43
2018-05-09T14:05:06.364Z,4.97
2018-05-09T14:07:33.913Z,4.75
2018-05-09T14:10:01.469Z,4.82
2018-05-09T14:12:28.969Z,4.35
2018-05-09T14:14:56.489Z,5.00
2018-05-09T14:17:24.849Z,4.22
2018-05-09T14:19:52.391Z,4.40
2018-05-09T14:22:19.949Z,4.32
2018-05-09T14:24:47.473Z,4.40
2018-05-09T14:27:15.204Z,5.07
2018-05-09T14:29:42.642Z,4.82
2018-05-09T14:32:10.298Z,4.60
2018-05-09T14:34:37.828Z,4.40
2018-05-09T14:37:05.366Z,4.87
2018-05-09T14:39:32.930Z,4.60
2018-05-09T14:42:00.428Z,4.35
2018-05-09T14:44:28.134Z,4.55
2018-05-09T14:46:55.690Z,4.75
2018-05-09T14:49:23.977Z,4.93
2018-05-09T14:51:51.586Z,4.68
2018-05-09T14:54:19.120Z,4.50
2018-05-09T14:56:46.654Z,4.60
2018-05-09T14:59:14.173Z,4.90
2018-05-09T15:01:41.735Z,4.60
2018-05-09T15:04:09.454Z,4.30
2018-05-09T15:06:36.987Z,4.30
2018-05-09T15:09:05.270Z,4.45
2018-05-09T15:11:33.584Z,4.65
2018-05-09T15:14:01.221Z,5.07
2018-05-09T15:16:28.733Z,4.43
2018-05-09T15:18:56.377Z,5.20
2018-05-09T15:21:23.958Z,4.60
2018-05-09T15:23:51.564Z,6.20
2018-05-09T15:26:19.114Z,4.28
2018-05-09T15:28:46.770Z,5.07
2018-05-09T15:31:15.193Z,5.05
2018-05-09T15:33:42.715Z,5.70
2018-05-09T15:36:11.144Z,5.00
2018-05-09T15:38:38.687Z,5.00
2018-05-09T15:41:06.199Z,5.43
2018-05-09T15:43:34.478Z,4.93
2018-05-09T15:46:02.238Z,6.60
2018-05-09T15:48:30.555Z,5.85
2018-05-09T15:50:58.070Z,4.80
2018-05-09T15:53:26.501Z,5.25
2018-05-09T15:55:54.775Z,5.10
2018-05-09T15:58:22.279Z,5.40
2018-05-09T16:00:49.900Z,5.12
2018-05-09T16:03:17.418Z,5.30
2018-05-09T16:05:44.945Z,5.10
2018-05-09T16:08:12.489Z,5.50
2018-05-09T16:10:41.010Z,5.80
2018-05-09T16:13:08.542Z,5.70
2018-05-09T16:15:36.085Z,5.37
2018-05-09T16:18:03.622Z,6.50
2018-05-09T16:20:31.149Z,5.25
2018-05-09T16:22:58.681Z,5.18
2018-05-09T16:25:26.256Z,6.68
2018-05-09T16:27:53.878Z,5.50
2018-05-09T16:30:21.403Z,6.45
2018-05-09T16:32:49.753Z,5.90
2018-05-09T16:35:17.340Z,6.50
2018-05-09T16:37:45.692Z,5.70
2018-05-09T16:40:13.235Z,6.70
2018-05-09T16:42:40.785Z,6.97
2018-05-09T16:45:08.422Z,6.03
2018-05-09T16:47:35.971Z,7.00
2018-05-09T16:50:03.504Z,5.90
2018-05-09T16:52:31.809Z,6.50
2018-05-09T16:55:00.156Z,6.37
2018-05-09T16:57:27.679Z,5.85
2018-05-09T16:59:55.268Z,6.00
2018-05-09T17:02:22.810Z,6.85
2018-05-09T17:04:50.376Z,6.95
2018-05-09T17:07:19.630Z,6.97
2018-05-09T17:09:47.998Z,6.95
2018-05-09T17:12:15.768Z,6.70
2018-05-09T17:14:44.062Z,6.55
2018-05-09T17:17:11.636Z,5.97
2018-05-09T17:19:39.226Z,5.60
2018-05-09T17:22:24.327Z,6.20
2018-05-09T17:24:51.905Z,6.43
2018-05-09T17:27:19.456Z,6.40
2018-05-09T17:29:47.013Z,6.62
2018-05-09T17:32:15.314Z,7.05
2018-05-09T17:34:42.863Z,6.25
2018-05-09T17:37:10.414Z,6.18
2018-05-09T17:39:38.771Z,5.90
2018-05-09T17:42:06.298Z,6.53
2018-05-09T17:44:33.882Z,6.28
2018-05-09T17:47:01.406Z,6.00
2018-05-09T17:49:28.931Z,7.10
2018-05-09T17:51:57.247Z,6.30
2018-05-09T17:54:24.957Z,6.15
2018-05-09T17:56:52.530Z,5.03
2018-05-09T17:59:20.833Z,4.70
2018-05-09T18:04:41.137Z,4.80
2018-05-09T18:07:09.542Z,6.95
2018-05-09T18:09:37.079Z,5.55
2018-05-09T18:12:04.687Z,7.35
2018-05-09T18:14:32.973Z,6.35
2018-05-09T18:17:00.540Z,5.90
2018-05-09T18:19:28.138Z,5.60
2018-05-09T18:21:55.682Z,5.78
2018-05-09T18:24:23.993Z,5.75
2018-05-09T18:26:51.577Z,6.43
2018-05-09T18:29:19.319Z,6.00
2018-05-09T18:31:46.869Z,6.22
2018-05-09T18:34:14.447Z,7.22
2018-05-09T18:36:41.976Z,6.47
2018-05-09T18:39:09.564Z,7.80
2018-05-09T18:41:37.090Z,8.23
2018-05-09T18:44:05.397Z,8.38
2018-05-09T18:46:33.005Z,9.20
2018-05-09T18:49:00.581Z,9.05
2018-05-09T18:51:28.175Z,10.55
2018-05-09T18:53:55.720Z,14.82
2018-05-09T18:56:23.306Z,12.77
2018-05-09T18:58:50.895Z,12.60
2018-05-09T19:01:18.472Z,13.98
2018-05-09T19:03:46.018Z,14.98
2018-05-09T19:06:13.719Z,14.95
2018-05-09T19:08:51.715Z,16.12
2018-05-09T19:11:20.795Z,16.05
2018-05-09T19:13:49.076Z,15.00
2018-05-09T19:16:22.198Z,15.57
2018-05-09T19:25:44.084Z,15.27
2018-05-09T19:28:13.824Z,15.10
2018-05-09T19:30:46.021Z,15.30
2018-05-09T19:33:26.756Z,16.52
2018-05-09T19:35:56.852Z,16.00
2018-05-09T19:38:36.903Z,14.75
2018-05-09T19:54:50.424Z,19.43
2018-05-09T19:57:18.429Z,17.12
2018-05-09T19:59:46.244Z,15.48
2018-05-09T20:02:14.190Z,15.38
2018-05-09T20:04:41.831Z,15.00
2018-05-09T20:07:09.712Z,14.70
2018-05-09T20:09:37.492Z,14.52
2018-05-09T20:12:05.406Z,13.60
2018-05-09T20:14:34.569Z,15.82
2018-05-09T20:17:07.547Z,13.50
2018-05-09T20:19:35.299Z,14.23
2018-05-09T20:22:02.907Z,12.90
2018-05-09T20:24:30.595Z,13.52
2018-05-09T20:26:58.184Z,13.00
2018-05-09T20:29:30.178Z,13.60
2018-05-09T20:32:09.460Z,14.38
2018-05-09T20:34:37.031Z,12.93
2018-05-09T20:37:04.837Z,12.50
2018-05-09T20:39:32.664Z,11.93
2018-05-09T20:42:00.282Z,11.80
2018-05-09T20:44:27.868Z,11.60
2018-05-09T20:46:57.520Z,13.00
2018-05-09T20:49:28.046Z,12.20
2018-05-09T20:51:56.290Z,12.30
2018-05-09T20:54:27.646Z,12.15
2018-05-09T20:56:58.879Z,11.10
2018-05-09T20:59:26.506Z,12.20
2018-05-09T21:01:54.176Z,9.70
2018-05-09T21:04:21.941Z,8.70
2018-05-09T21:06:51.039Z,9.35
2018-05-09T21:09:18.794Z,10.40
2018-05-09T21:11:58.036Z,10.65
2018-05-09T21:14:25.767Z,10.60
2018-05-09T21:16:53.443Z,10.05
2018-05-09T21:19:21.044Z,11.40
2018-05-09T21:21:49.319Z,11.27
2018-05-09T21:24:17.641Z,11.98
2018-05-09T21:26:45.155Z,10.32
2018-05-09T21:29:12.710Z,10.20
2018-05-09T21:31:41.005Z,9.73
2018-05-09T21:34:09.311Z,12.63
2018-05-09T21:36:36.831Z,10.88
2018-05-09T21:39:05.150Z,10.77
2018-05-09T21:41:32.689Z,9.95
2018-05-09T21:44:00.202Z,10.30
2018-05-09T21:46:27.792Z,10.38
2018-05-09T21:48:56.252Z,10.90
2018-05-09T21:51:23.915Z,10.55
2018-05-09T21:53:51.489Z,12.40
2018-05-09T21:56:19.306Z,11.70
2018-05-09T21:58:46.871Z,11.25
2018-05-09T22:01:14.597Z,12.80
2018-05-09T22:03:42.208Z,11.65
2018-05-09T22:06:09.821Z,11.95
2018-05-09T22:08:37.483Z,60.45
2018-05-09T22:11:06.233Z,30.48
2018-05-09T22:13:33.997Z,76.15
2018-05-09T22:16:03.249Z,25.50
2018-05-09T22:18:30.904Z,15.60
2018-05-09T22:20:58.544Z,10.90
2018-05-09T22:23:26.868Z,11.07
2018-05-09T22:25:54.497Z,12.70
2018-05-09T22:28:22.823Z,12.32
2018-05-09T22:30:50.376Z,12.57
2018-05-09T22:33:17.930Z,13.62
2018-05-09T22:35:45.567Z,12.93
2018-05-09T22:38:13.876Z,11.63
2018-05-09T22:40:41.425Z,26.55
2018-05-09T22:43:08.974Z,37.97
2018-05-09T22:45:36.539Z,23.23
2018-05-09T22:48:04.060Z,11.95
2018-05-09T22:50:32.391Z,11.55
2018-05-09T22:52:59.954Z,11.80
2018-05-09T22:55:27.556Z,11.40
2018-05-09T22:57:55.170Z,11.32
2018-05-09T23:00:22.717Z,12.02
2018-05-09T23:02:50.479Z,11.82
2018-05-09T23:05:19.601Z,11.80
2018-05-09T23:07:47.188Z,12.50
2018-05-09T23:10:14.825Z,11.88
2018-05-09T23:12:42.568Z,13.32
2018-05-09T23:15:10.318Z,12.60
2018-05-09T23:17:37.999Z,12.60
2018-05-09T23:20:05.605Z,11.57
2018-05-09T23:22:33.221Z,14.32
2018-05-09T23:25:00.891Z,11.85
2018-05-09T23:27:28.511Z,13.50
2018-05-09T23:29:57.024Z,11.20
2018-05-09T23:32:24.981Z,12.10
2018-05-09T23:34:52.950Z,11.40
2018-05-09T23:37:20.624Z,12.50
2018-05-09T23:39:48.298Z,12.05
2018-05-09T23:49:00.761Z,13.10
2018-05-09T23:51:28.454Z,11.88
2018-05-09T23:53:56.092Z,19.58
2018-05-09T23:56:23.655Z,11.73
2018-05-09T23:58:51.314Z,11.93
